sensor_id;sensor_type;location;lat;lon;timestamp;P1;durP1;ratioP1;P2;durP2;ratioP2
42704;SDS011;28342;42.594;23.414;2023-02-07T00:00:43;60.70;;;25.65;;
42704;SDS011;28342;42.594;23.414;2023-02-07T00:03:09;50.78;;;22.38;;
42704;SDS011;28342;42.594;23.414;2023-02-07T00:05:34;47.10;;;20.67;;
42704;SDS011;28342;42.594;23.414;2023-02-07T00:08:01;48.72;;;21.30;;
42704;SDS011;28342;42.594;23.414;2023-02-07T00:10:30;52.60;;;23.13;;
42704;SDS011;28342;42.594;23.414;2023-02-07T00:13:00;51.03;;;21.77;;
42704;SDS011;28342;42.594;23.414;2023-02-07T00:15:25;38.15;;;17.73;;
42704;SDS011;28342;42.594;23.414;2023-02-07T00:17:52;39.97;;;16.98;;
42704;SDS011;28342;42.594;23.414;2023-02-07T00:20:18;43.20;;;18.88;;
42704;SDS011;28342;42.594;23.414;2023-02-07T00:22:45;35.50;;;17.67;;
42704;SDS011;28342;42.594;23.414;2023-02-07T00:25:12;39.42;;;16.60;;
42704;SDS011;28342;42.594;23.414;2023-02-07T00:27:41;37.08;;;17.27;;
42704;SDS011;28342;42.594;23.414;2023-02-07T00:30:07;32.08;;;14.10;;
42704;SDS011;28342;42.594;23.414;2023-02-07T00:32:33;33.25;;;16.33;;
42704;SDS011;28342;42.594;23.414;2023-02-07T00:35:01;34.10;;;14.90;;
42704;SDS011;28342;42.594;23.414;2023-02-07T00:37:28;29.77;;;13.98;;
42704;SDS011;28342;42.594;23.414;2023-02-07T00:39:53;27.33;;;12.52;;
42704;SDS011;28342;42.594;23.414;2023-02-07T00:42:19;30.85;;;13.35;;
42704;SDS011;28342;42.594;23.414;2023-02-07T00:44:45;28.83;;;13.52;;
42704;SDS011;28342;42.594;23.414;2023-02-07T00:47:10;27.85;;;12.85;;
42704;SDS011;28342;42.594;23.414;2023-02-07T00:49:36;29.85;;;13.85;;
42704;SDS011;28342;42.594;23.414;2023-02-07T00:52:02;27.83;;;13.20;;
42704;SDS011;28342;42.594;23.414;2023-02-07T00:54:27;27.75;;;12.85;;
42704;SDS011;28342;42.594;23.414;2023-02-07T00:56:53;27.85;;;13.85;;
42704;SDS011;28342;42.594;23.414;2023-02-07T00:59:18;29.75;;;13.07;;
42704;SDS011;28342;42.594;23.414;2023-02-07T01:01:44;27.02;;;12.43;;
42704;SDS011;28342;42.594;23.414;2023-02-07T01:04:09;28.92;;;12.80;;
42704;SDS011;28342;42.594;23.414;2023-02-07T01:06:36;29.95;;;13.23;;
42704;SDS011;28342;42.594;23.414;2023-02-07T01:09:02;28.92;;;13.18;;
42704;SDS011;28342;42.594;23.414;2023-02-07T01:11:29;58.50;;;21.77;;
42704;SDS011;28342;42.594;23.414;2023-02-07T01:13:54;34.55;;;13.77;;
42704;SDS011;28342;42.594;23.414;2023-02-07T01:16:21;29.85;;;11.85;;
42704;SDS011;28342;42.594;23.414;2023-02-07T01:18:58;19.23;;;9.20;;
42704;SDS011;28342;42.594;23.414;2023-02-07T01:21:27;29.45;;;13.13;;
42704;SDS011;28342;42.594;23.414;2023-02-07T01:23:56;26.48;;;11.63;;
42704;SDS011;28342;42.594;23.414;2023-02-07T01:26:23;25.35;;;12.25;;
42704;SDS011;28342;42.594;23.414;2023-02-07T01:29:00;24.90;;;11.57;;
42704;SDS011;28342;42.594;23.414;2023-02-07T01:31:28;28.73;;;12.20;;
42704;SDS011;28342;42.594;23.414;2023-02-07T01:33:54;24.85;;;11.18;;
42704;SDS011;28342;42.594;23.414;2023-02-07T01:36:21;23.65;;;11.40;;
42704;SDS011;28342;42.594;23.414;2023-02-07T01:38:50;23.35;;;11.43;;
42704;SDS011;28342;42.594;23.414;2023-02-07T01:41:18;24.23;;;10.88;;
42704;SDS011;28342;42.594;23.414;2023-02-07T01:43:56;20.70;;;10.18;;
42704;SDS011;28342;42.594;23.414;2023-02-07T01:46:25;23.55;;;10.65;;
42704;SDS011;28342;42.594;23.414;2023-02-07T01:48:52;26.08;;;11.73;;
42704;SDS011;28342;42.594;23.414;2023-02-07T01:51:21;25.75;;;11.80;;
42704;SDS011;28342;42.594;23.414;2023-02-07T01:53:47;23.23;;;11.45;;
42704;SDS011;28342;42.594;23.414;2023-02-07T01:56:13;21.45;;;10.20;;
42704;SDS011;28342;42.594;23.414;2023-02-07T01:58:41;24.10;;;10.88;;
42704;SDS011;28342;42.594;23.414;2023-02-07T02:01:09;24.15;;;11.63;;
42704;SDS011;28342;42.594;23.414;2023-02-07T02:03:41;22.23;;;10.85;;
42704;SDS011;28342;42.594;23.414;2023-02-07T02:06:10;20.70;;;9.50;;
42704;SDS011;28342;42.594;23.414;2023-02-07T02:08:37;22.95;;;9.30;;
42704;SDS011;28342;42.594;23.414;2023-02-07T02:11:09;19.95;;;9.73;;
42704;SDS011;28342;42.594;23.414;2023-02-07T02:16:41;20.17;;;9.25;;
42704;SDS011;28342;42.594;23.414;2023-02-07T02:20:01;17.25;;;9.63;;
42704;SDS011;28342;42.594;23.414;2023-02-07T02:25:12;58.25;;;21.85;;
42704;SDS011;28342;42.594;23.414;2023-02-07T02:31:05;34.95;;;14.00;;
42704;SDS011;28342;42.594;23.414;2023-02-07T02:34:16;28.55;;;12.82;;
42704;SDS011;28342;42.594;23.414;2023-02-07T02:36:51;24.48;;;10.90;;
42704;SDS011;28342;42.594;23.414;2023-02-07T02:47:25;60.25;;;25.58;;
42704;SDS011;28342;42.594;23.414;2023-02-07T02:49:56;50.70;;;20.10;;
42704;SDS011;28342;42.594;23.414;2023-02-07T02:52:35;225.98;;;67.07;;
42704;SDS011;28342;42.594;23.414;2023-02-07T02:55:20;169.02;;;50.78;;
42704;SDS011;28342;42.594;23.414;2023-02-07T02:57:59;118.20;;;38.20;;
42704;SDS011;28342;42.594;23.414;2023-02-07T03:12:12;82.60;;;30.17;;
42704;SDS011;28342;42.594;23.414;2023-02-07T03:15:08;69.57;;;25.73;;
42704;SDS011;28342;42.594;23.414;2023-02-07T03:23:42;49.28;;;22.02;;
42704;SDS011;28342;42.594;23.414;2023-02-07T03:26:11;36.05;;;16.52;;
42704;SDS011;28342;42.594;23.414;2023-02-07T03:28:39;38.58;;;17.02;;
42704;SDS011;28342;42.594;23.414;2023-02-07T03:31:06;45.00;;;19.95;;
42704;SDS011;28342;42.594;23.414;2023-02-07T03:34:06;27.63;;;14.38;;
42704;SDS011;28342;42.594;23.414;2023-02-07T03:36:45;31.52;;;13.60;;
42704;SDS011;28342;42.594;23.414;2023-02-07T03:39:19;20.83;;;9.18;;
42704;SDS011;28342;42.594;23.414;2023-02-07T03:41:48;16.00;;;8.68;;
42704;SDS011;28342;42.594;23.414;2023-02-07T03:44:26;17.70;;;9.38;;
42704;SDS011;28342;42.594;23.414;2023-02-07T03:46:54;19.42;;;9.55;;
42704;SDS011;28342;42.594;23.414;2023-02-07T03:49:22;20.92;;;9.93;;
42704;SDS011;28342;42.594;23.414;2023-02-07T03:51:48;18.50;;;9.02;;
42704;SDS011;28342;42.594;23.414;2023-02-07T03:54:14;18.48;;;8.82;;
42704;SDS011;28342;42.594;23.414;2023-02-07T03:56:47;22.10;;;9.73;;
42704;SDS011;28342;42.594;23.414;2023-02-07T03:59:14;16.65;;;9.48;;
42704;SDS011;28342;42.594;23.414;2023-02-07T04:01:40;20.05;;;8.75;;
42704;SDS011;28342;42.594;23.414;2023-02-07T04:04:10;13.38;;;7.75;;
42704;SDS011;28342;42.594;23.414;2023-02-07T04:06:51;15.07;;;8.70;;
42704;SDS011;28342;42.594;23.414;2023-02-07T04:12:46;14.70;;;7.88;;
42704;SDS011;28342;42.594;23.414;2023-02-07T04:15:12;16.15;;;8.27;;
42704;SDS011;28342;42.594;23.414;2023-02-07T04:17:38;17.02;;;8.30;;
42704;SDS011;28342;42.594;23.414;2023-02-07T04:20:04;11.65;;;6.65;;
42704;SDS011;28342;42.594;23.414;2023-02-07T04:22:34;14.02;;;7.32;;
42704;SDS011;28342;42.594;23.414;2023-02-07T04:25:00;15.93;;;7.47;;
42704;SDS011;28342;42.594;23.414;2023-02-07T04:27:26;16.67;;;7.72;;
42704;SDS011;28342;42.594;23.414;2023-02-07T04:29:53;15.52;;;8.00;;
42704;SDS011;28342;42.594;23.414;2023-02-07T04:32:20;18.75;;;8.85;;
42704;SDS011;28342;42.594;23.414;2023-02-07T04:34:46;15.45;;;8.18;;
42704;SDS011;28342;42.594;23.414;2023-02-07T04:37:11;18.45;;;9.10;;
42704;SDS011;28342;42.594;23.414;2023-02-07T04:39:37;16.42;;;7.93;;
42704;SDS011;28342;42.594;23.414;2023-02-07T04:42:02;19.98;;;9.05;;
42704;SDS011;28342;42.594;23.414;2023-02-07T04:44:29;17.25;;;8.90;;
42704;SDS011;28342;42.594;23.414;2023-02-07T04:46:56;17.35;;;8.55;;
42704;SDS011;28342;42.594;23.414;2023-02-07T04:49:23;15.75;;;8.32;;
42704;SDS011;28342;42.594;23.414;2023-02-07T04:51:56;17.10;;;8.27;;
42704;SDS011;28342;42.594;23.414;2023-02-07T04:54:21;17.63;;;9.07;;
42704;SDS011;28342;42.594;23.414;2023-02-07T04:57:07;19.48;;;9.38;;
42704;SDS011;28342;42.594;23.414;2023-02-07T04:59:38;22.27;;;10.00;;
42704;SDS011;28342;42.594;23.414;2023-02-07T05:02:03;20.75;;;9.73;;
42704;SDS011;28342;42.594;23.414;2023-02-07T05:04:29;16.13;;;7.63;;
42704;SDS011;28342;42.594;23.414;2023-02-07T05:06:54;17.35;;;9.05;;
42704;SDS011;28342;42.594;23.414;2023-02-07T05:09:28;15.43;;;8.38;;
42704;SDS011;28342;42.594;23.414;2023-02-07T05:11:54;17.50;;;9.13;;
42704;SDS011;28342;42.594;23.414;2023-02-07T05:14:20;16.38;;;8.60;;
42704;SDS011;28342;42.594;23.414;2023-02-07T05:16:46;15.10;;;7.88;;
42704;SDS011;28342;42.594;23.414;2023-02-07T05:19:11;19.55;;;9.38;;
42704;SDS011;28342;42.594;23.414;2023-02-07T05:21:36;17.45;;;8.88;;
42704;SDS011;28342;42.594;23.414;2023-02-07T05:24:07;17.88;;;8.85;;
42704;SDS011;28342;42.594;23.414;2023-02-07T05:26:35;26.67;;;13.32;;
42704;SDS011;28342;42.594;23.414;2023-02-07T05:29:01;27.30;;;14.73;;
42704;SDS011;28342;42.594;23.414;2023-02-07T05:31:28;24.00;;;11.90;;
42704;SDS011;28342;42.594;23.414;2023-02-07T05:34:11;15.05;;;8.38;;
42704;SDS011;28342;42.594;23.414;2023-02-07T05:36:37;15.32;;;8.95;;
42704;SDS011;28342;42.594;23.414;2023-02-07T05:39:02;22.27;;;10.32;;
42704;SDS011;28342;42.594;23.414;2023-02-07T05:41:28;26.92;;;13.15;;
42704;SDS011;28342;42.594;23.414;2023-02-07T05:43:53;30.15;;;15.13;;
42704;SDS011;28342;42.594;23.414;2023-02-07T05:46:19;31.45;;;16.67;;
42704;SDS011;28342;42.594;23.414;2023-02-07T05:48:45;28.73;;;15.43;;
42704;SDS011;28342;42.594;23.414;2023-02-07T05:51:10;27.55;;;14.60;;
42704;SDS011;28342;42.594;23.414;2023-02-07T05:53:35;60.80;;;22.98;;
42704;SDS011;28342;42.594;23.414;2023-02-07T05:56:01;38.90;;;18.02;;
42704;SDS011;28342;42.594;23.414;2023-02-07T05:58:28;32.60;;;15.30;;
42704;SDS011;28342;42.594;23.414;2023-02-07T06:00:54;28.65;;;14.15;;
42704;SDS011;28342;42.594;23.414;2023-02-07T06:03:20;35.53;;;17.92;;
42704;SDS011;28342;42.594;23.414;2023-02-07T06:05:45;38.47;;;17.85;;
42704;SDS011;28342;42.594;23.414;2023-02-07T06:08:10;30.60;;;17.08;;
42704;SDS011;28342;42.594;23.414;2023-02-07T06:10:36;31.52;;;16.38;;
42704;SDS011;28342;42.594;23.414;2023-02-07T06:13:01;26.75;;;13.50;;
42704;SDS011;28342;42.594;23.414;2023-02-07T06:15:27;48.90;;;19.58;;
42704;SDS011;28342;42.594;23.414;2023-02-07T06:17:53;40.50;;;16.67;;
42704;SDS011;28342;42.594;23.414;2023-02-07T06:20:23;37.92;;;17.15;;
42704;SDS011;28342;42.594;23.414;2023-02-07T06:22:54;35.70;;;16.45;;
42704;SDS011;28342;42.594;23.414;2023-02-07T06:25:23;36.75;;;16.65;;
42704;SDS011;28342;42.594;23.414;2023-02-07T06:27:48;33.28;;;16.40;;
42704;SDS011;28342;42.594;23.414;2023-02-07T06:30:14;33.38;;;14.57;;
42704;SDS011;28342;42.594;23.414;2023-02-07T06:32:39;33.10;;;14.85;;
42704;SDS011;28342;42.594;23.414;2023-02-07T06:35:05;34.20;;;15.52;;
42704;SDS011;28342;42.594;23.414;2023-02-07T06:37:31;32.63;;;15.30;;
42704;SDS011;28342;42.594;23.414;2023-02-07T06:39:57;36.83;;;16.50;;
42704;SDS011;28342;42.594;23.414;2023-02-07T06:42:22;33.03;;;15.95;;
42704;SDS011;28342;42.594;23.414;2023-02-07T06:44:47;33.35;;;14.52;;
42704;SDS011;28342;42.594;23.414;2023-02-07T06:47:13;29.30;;;14.68;;
42704;SDS011;28342;42.594;23.414;2023-02-07T06:49:40;33.05;;;14.57;;
42704;SDS011;28342;42.594;23.414;2023-02-07T06:52:06;32.13;;;16.50;;
42704;SDS011;28342;42.594;23.414;2023-02-07T06:54:31;29.73;;;14.05;;
42704;SDS011;28342;42.594;23.414;2023-02-07T06:56:57;31.00;;;15.02;;
42704;SDS011;28342;42.594;23.414;2023-02-07T06:59:22;29.98;;;13.90;;
42704;SDS011;28342;42.594;23.414;2023-02-07T07:01:47;25.52;;;13.80;;
42704;SDS011;28342;42.594;23.414;2023-02-07T07:04:13;31.33;;;14.27;;
42704;SDS011;28342;42.594;23.414;2023-02-07T07:06:38;28.40;;;13.65;;
42704;SDS011;28342;42.594;23.414;2023-02-07T07:09:05;23.88;;;11.48;;
42704;SDS011;28342;42.594;23.414;2023-02-07T07:11:31;26.67;;;13.05;;
42704;SDS011;28342;42.594;23.414;2023-02-07T07:13:57;25.67;;;13.38;;
42704;SDS011;28342;42.594;23.414;2023-02-07T07:16:24;29.55;;;13.85;;
42704;SDS011;28342;42.594;23.414;2023-02-07T07:18:50;27.67;;;13.70;;
42704;SDS011;28342;42.594;23.414;2023-02-07T07:21:15;27.55;;;12.70;;
42704;SDS011;28342;42.594;23.414;2023-02-07T07:23:41;33.47;;;15.98;;
42704;SDS011;28342;42.594;23.414;2023-02-07T07:26:06;34.10;;;16.10;;
42704;SDS011;28342;42.594;23.414;2023-02-07T07:28:32;46.03;;;19.23;;
42704;SDS011;28342;42.594;23.414;2023-02-07T07:31:04;28.20;;;14.10;;
42704;SDS011;28342;42.594;23.414;2023-02-07T07:33:32;24.55;;;12.00;;
42704;SDS011;28342;42.594;23.414;2023-02-07T07:36:02;21.75;;;11.38;;
42704;SDS011;28342;42.594;23.414;2023-02-07T07:38:28;25.58;;;12.55;;
42704;SDS011;28342;42.594;23.414;2023-02-07T07:40:56;24.85;;;12.20;;
42704;SDS011;28342;42.594;23.414;2023-02-07T07:43:22;29.63;;;14.35;;
42704;SDS011;28342;42.594;23.414;2023-02-07T07:45:51;30.25;;;13.80;;
42704;SDS011;28342;42.594;23.414;2023-02-07T07:48:21;26.70;;;12.07;;
42704;SDS011;28342;42.594;23.414;2023-02-07T07:50:47;22.48;;;12.13;;
42704;SDS011;28342;42.594;23.414;2023-02-07T07:53:13;21.27;;;10.75;;
42704;SDS011;28342;42.594;23.414;2023-02-07T07:55:39;19.08;;;9.82;;
42704;SDS011;28342;42.594;23.414;2023-02-07T07:58:05;16.75;;;9.52;;
42704;SDS011;28342;42.594;23.414;2023-02-07T08:00:30;24.85;;;11.20;;
42704;SDS011;28342;42.594;23.414;2023-02-07T08:02:57;22.85;;;10.75;;
42704;SDS011;28342;42.594;23.414;2023-02-07T08:05:28;16.55;;;8.85;;
42704;SDS011;28342;42.594;23.414;2023-02-07T08:07:54;25.45;;;11.73;;
42704;SDS011;28342;42.594;23.414;2023-02-07T08:10:20;22.35;;;10.93;;
42704;SDS011;28342;42.594;23.414;2023-02-07T08:12:46;20.27;;;11.02;;
42704;SDS011;28342;42.594;23.414;2023-02-07T08:15:12;20.33;;;10.32;;
42704;SDS011;28342;42.594;23.414;2023-02-07T08:17:38;21.65;;;10.23;;
42704;SDS011;28342;42.594;23.414;2023-02-07T08:20:03;20.60;;;9.88;;
42704;SDS011;28342;42.594;23.414;2023-02-07T08:22:29;26.05;;;11.88;;
42704;SDS011;28342;42.594;23.414;2023-02-07T08:24:55;26.02;;;11.45;;
42704;SDS011;28342;42.594;23.414;2023-02-07T08:27:20;19.73;;;10.32;;
42704;SDS011;28342;42.594;23.414;2023-02-07T08:29:46;17.23;;;9.98;;
42704;SDS011;28342;42.594;23.414;2023-02-07T08:32:12;18.55;;;9.23;;
42704;SDS011;28342;42.594;23.414;2023-02-07T08:34:38;18.88;;;10.15;;
42704;SDS011;28342;42.594;23.414;2023-02-07T08:37:04;23.88;;;11.90;;
42704;SDS011;28342;42.594;23.414;2023-02-07T08:39:30;21.23;;;10.57;;
42704;SDS011;28342;42.594;23.414;2023-02-07T08:41:56;24.05;;;11.00;;
42704;SDS011;28342;42.594;23.414;2023-02-07T08:44:21;18.58;;;9.50;;
42704;SDS011;28342;42.594;23.414;2023-02-07T08:46:47;19.50;;;9.48;;
42704;SDS011;28342;42.594;23.414;2023-02-07T08:49:12;23.13;;;10.98;;
42704;SDS011;28342;42.594;23.414;2023-02-07T08:51:38;25.80;;;11.52;;
42704;SDS011;28342;42.594;23.414;2023-02-07T08:54:03;18.65;;;10.68;;
42704;SDS011;28342;42.594;23.414;2023-02-07T08:56:29;25.52;;;13.13;;
42704;SDS011;28342;42.594;23.414;2023-02-07T08:58:54;23.77;;;12.65;;
42704;SDS011;28342;42.594;23.414;2023-02-07T09:01:20;20.70;;;9.93;;
42704;SDS011;28342;42.594;23.414;2023-02-07T09:03:45;17.42;;;9.43;;
42704;SDS011;28342;42.594;23.414;2023-02-07T09:06:11;14.75;;;9.10;;
42704;SDS011;28342;42.594;23.414;2023-02-07T09:08:38;16.80;;;8.32;;
42704;SDS011;28342;42.594;23.414;2023-02-07T09:11:03;19.92;;;8.55;;
42704;SDS011;28342;42.594;23.414;2023-02-07T09:13:29;19.13;;;8.73;;
42704;SDS011;28342;42.594;23.414;2023-02-07T09:15:55;22.23;;;9.10;;
42704;SDS011;28342;42.594;23.414;2023-02-07T09:18:22;15.63;;;9.30;;
42704;SDS011;28342;42.594;23.414;2023-02-07T09:20:48;12.50;;;7.60;;
42704;SDS011;28342;42.594;23.414;2023-02-07T09:23:14;14.60;;;7.63;;
42704;SDS011;28342;42.594;23.414;2023-02-07T09:25:43;14.75;;;8.23;;
42704;SDS011;28342;42.594;23.414;2023-02-07T09:28:13;13.52;;;8.00;;
42704;SDS011;28342;42.594;23.414;2023-02-07T09:30:40;19.13;;;9.45;;
42704;SDS011;28342;42.594;23.414;2023-02-07T09:33:06;18.83;;;10.32;;
42704;SDS011;28342;42.594;23.414;2023-02-07T09:35:35;17.45;;;9.27;;
42704;SDS011;28342;42.594;23.414;2023-02-07T09:38:05;23.35;;;10.20;;
42704;SDS011;28342;42.594;23.414;2023-02-07T09:40:31;15.27;;;9.02;;
42704;SDS011;28342;42.594;23.414;2023-02-07T09:45:56;13.65;;;8.27;;
42704;SDS011;28342;42.594;23.414;2023-02-07T09:48:59;16.92;;;9.00;;
42704;SDS011;28342;42.594;23.414;2023-02-07T09:51:38;21.23;;;10.13;;
42704;SDS011;28342;42.594;23.414;2023-02-07T09:54:05;20.20;;;10.27;;
42704;SDS011;28342;42.594;23.414;2023-02-07T09:56:40;24.40;;;10.45;;
42704;SDS011;28342;42.594;23.414;2023-02-07T09:59:19;20.10;;;10.43;;
42704;SDS011;28342;42.594;23.414;2023-02-07T10:01:45;21.42;;;10.07;;
42704;SDS011;28342;42.594;23.414;2023-02-07T10:04:21;22.67;;;10.55;;
42704;SDS011;28342;42.594;23.414;2023-02-07T10:07:10;19.45;;;9.88;;
42704;SDS011;28342;42.594;23.414;2023-02-07T10:09:41;23.33;;;9.18;;
42704;SDS011;28342;42.594;23.414;2023-02-07T10:23:30;18.38;;;8.88;;
42704;SDS011;28342;42.594;23.414;2023-02-07T10:29:01;22.23;;;11.32;;
42704;SDS011;28342;42.594;23.414;2023-02-07T10:31:52;19.63;;;10.45;;
42704;SDS011;28342;42.594;23.414;2023-02-07T10:34:20;17.38;;;9.27;;
42704;SDS011;28342;42.594;23.414;2023-02-07T10:36:49;16.77;;;9.05;;
42704;SDS011;28342;42.594;23.414;2023-02-07T10:39:28;25.75;;;10.75;;
42704;SDS011;28342;42.594;23.414;2023-02-07T10:41:57;29.17;;;13.25;;
42704;SDS011;28342;42.594;23.414;2023-02-07T10:44:23;25.38;;;11.10;;
42704;SDS011;28342;42.594;23.414;2023-02-07T10:46:53;20.70;;;11.35;;
42704;SDS011;28342;42.594;23.414;2023-02-07T10:49:24;17.92;;;10.20;;
42704;SDS011;28342;42.594;23.414;2023-02-07T10:51:53;23.15;;;11.13;;
42704;SDS011;28342;42.594;23.414;2023-02-07T10:54:22;21.33;;;10.60;;
42704;SDS011;28342;42.594;23.414;2023-02-07T10:56:49;16.90;;;9.20;;
42704;SDS011;28342;42.594;23.414;2023-02-07T10:59:29;17.85;;;9.15;;
42704;SDS011;28342;42.594;23.414;2023-02-07T11:04:51;17.10;;;9.07;;
42704;SDS011;28342;42.594;23.414;2023-02-07T11:07:17;17.10;;;9.55;;
42704;SDS011;28342;42.594;23.414;2023-02-07T11:09:46;21.77;;;10.43;;
42704;SDS011;28342;42.594;23.414;2023-02-07T11:12:14;23.50;;;12.40;;
42704;SDS011;28342;42.594;23.414;2023-02-07T11:15:00;29.05;;;14.60;;
42704;SDS011;28342;42.594;23.414;2023-02-07T11:17:28;34.28;;;15.20;;
42704;SDS011;28342;42.594;23.414;2023-02-07T11:19:55;28.02;;;14.07;;
42704;SDS011;28342;42.594;23.414;2023-02-07T11:22:26;31.17;;;14.60;;
42704;SDS011;28342;42.594;23.414;2023-02-07T11:25:01;23.70;;;12.05;;
42704;SDS011;28342;42.594;23.414;2023-02-07T11:27:35;26.00;;;13.38;;
42704;SDS011;28342;42.594;23.414;2023-02-07T11:30:16;28.45;;;14.00;;
42704;SDS011;28342;42.594;23.414;2023-02-07T11:32:52;24.88;;;13.43;;
42704;SDS011;28342;42.594;23.414;2023-02-07T11:35:29;23.10;;;12.13;;
42704;SDS011;28342;42.594;23.414;2023-02-07T11:38:01;21.73;;;11.48;;
42704;SDS011;28342;42.594;23.414;2023-02-07T11:40:35;27.45;;;12.30;;
42704;SDS011;28342;42.594;23.414;2023-02-07T11:43:08;19.10;;;9.45;;
42704;SDS011;28342;42.594;23.414;2023-02-07T11:45:38;17.38;;;9.23;;
42704;SDS011;28342;42.594;23.414;2023-02-07T11:48:36;24.42;;;8.90;;
42704;SDS011;28342;42.594;23.414;2023-02-07T11:51:05;16.33;;;8.98;;
42704;SDS011;28342;42.594;23.414;2023-02-07T11:53:36;17.42;;;9.70;;
42704;SDS011;28342;42.594;23.414;2023-02-07T11:56:04;18.27;;;9.52;;
42704;SDS011;28342;42.594;23.414;2023-02-07T11:58:37;18.50;;;9.20;;
42704;SDS011;28342;42.594;23.414;2023-02-07T12:01:06;25.08;;;10.00;;
42704;SDS011;28342;42.594;23.414;2023-02-07T12:03:42;31.27;;;15.48;;
42704;SDS011;28342;42.594;23.414;2023-02-07T12:06:26;23.23;;;10.23;;
42704;SDS011;28342;42.594;23.414;2023-02-07T12:08:57;21.83;;;10.02;;
42704;SDS011;28342;42.594;23.414;2023-02-07T12:11:25;16.17;;;9.00;;
42704;SDS011;28342;42.594;23.414;2023-02-07T12:14:18;22.88;;;9.35;;
42704;SDS011;28342;42.594;23.414;2023-02-07T12:16:57;15.98;;;8.38;;
42704;SDS011;28342;42.594;23.414;2023-02-07T12:19:28;19.10;;;8.60;;
42704;SDS011;28342;42.594;23.414;2023-02-07T12:24:30;19.15;;;9.13;;
42704;SDS011;28342;42.594;23.414;2023-02-07T12:35:37;25.45;;;12.27;;
42704;SDS011;28342;42.594;23.414;2023-02-07T12:43:39;22.58;;;11.38;;
42704;SDS011;28342;42.594;23.414;2023-02-07T12:57:36;33.80;;;17.33;;
42704;SDS011;28342;42.594;23.414;2023-02-07T13:19:10;35.97;;;11.82;;
42704;SDS011;28342;42.594;23.414;2023-02-07T13:21:57;27.85;;;13.30;;
42704;SDS011;28342;42.594;23.414;2023-02-07T13:24:44;22.48;;;12.23;;
42704;SDS011;28342;42.594;23.414;2023-02-07T13:27:12;23.10;;;11.32;;
42704;SDS011;28342;42.594;23.414;2023-02-07T13:29:45;22.38;;;11.18;;
42704;SDS011;28342;42.594;23.414;2023-02-07T13:32:16;21.65;;;10.55;;
42704;SDS011;28342;42.594;23.414;2023-02-07T13:35:09;24.60;;;11.18;;
42704;SDS011;28342;42.594;23.414;2023-02-07T13:37:48;37.25;;;17.33;;
42704;SDS011;28342;42.594;23.414;2023-02-07T13:43:32;49.85;;;22.10;;
42704;SDS011;28342;42.594;23.414;2023-02-07T13:48:58;23.10;;;13.32;;
42704;SDS011;28342;42.594;23.414;2023-02-07T13:57:00;21.83;;;11.55;;
42704;SDS011;28342;42.594;23.414;2023-02-07T14:00:04;30.48;;;12.65;;
42704;SDS011;28342;42.594;23.414;2023-02-07T14:02:34;29.40;;;12.57;;
42704;SDS011;28342;42.594;23.414;2023-02-07T14:05:05;24.58;;;12.15;;
42704;SDS011;28342;42.594;23.414;2023-02-07T14:07:34;23.00;;;10.65;;
42704;SDS011;28342;42.594;23.414;2023-02-07T14:10:03;20.30;;;10.82;;
42704;SDS011;28342;42.594;23.414;2023-02-07T14:12:31;23.73;;;12.13;;
42704;SDS011;28342;42.594;23.414;2023-02-07T14:21:00;23.05;;;10.40;;
42704;SDS011;28342;42.594;23.414;2023-02-07T14:23:48;23.33;;;11.70;;
42704;SDS011;28342;42.594;23.414;2023-02-07T14:31:48;18.75;;;10.25;;
42704;SDS011;28342;42.594;23.414;2023-02-07T14:34:19;28.00;;;12.48;;
42704;SDS011;28342;42.594;23.414;2023-02-07T14:36:45;20.88;;;11.52;;
42704;SDS011;28342;42.594;23.414;2023-02-07T14:39:25;30.33;;;14.27;;
42704;SDS011;28342;42.594;23.414;2023-02-07T14:44:31;22.33;;;10.73;;
42704;SDS011;28342;42.594;23.414;2023-02-07T14:46:59;23.67;;;10.90;;
42704;SDS011;28342;42.594;23.414;2023-02-07T14:49:41;21.10;;;10.35;;
42704;SDS011;28342;42.594;23.414;2023-02-07T14:52:14;15.48;;;9.60;;
42704;SDS011;28342;42.594;23.414;2023-02-07T14:54:52;20.37;;;10.90;;
42704;SDS011;28342;42.594;23.414;2023-02-07T14:57:32;22.98;;;10.25;;
42704;SDS011;28342;42.594;23.414;2023-02-07T15:00:21;23.80;;;11.55;;
42704;SDS011;28342;42.594;23.414;2023-02-07T15:03:02;31.65;;;13.00;;
42704;SDS011;28342;42.594;23.414;2023-02-07T15:05:37;32.22;;;14.52;;
42704;SDS011;28342;42.594;23.414;2023-02-07T15:08:16;26.83;;;12.68;;
42704;SDS011;28342;42.594;23.414;2023-02-07T15:10:58;25.42;;;12.95;;
42704;SDS011;28342;42.594;23.414;2023-02-07T15:13:41;26.33;;;12.35;;
42704;SDS011;28342;42.594;23.414;2023-02-07T15:18:39;26.63;;;13.40;;
42704;SDS011;28342;42.594;23.414;2023-02-07T15:21:10;29.45;;;14.75;;
42704;SDS011;28342;42.594;23.414;2023-02-07T15:23:41;32.70;;;15.75;;
42704;SDS011;28342;42.594;23.414;2023-02-07T15:26:09;34.22;;;16.73;;
42704;SDS011;28342;42.594;23.414;2023-02-07T15:28:41;27.02;;;14.38;;
42704;SDS011;28342;42.594;23.414;2023-02-07T15:33:38;30.80;;;14.25;;
42704;SDS011;28342;42.594;23.414;2023-02-07T15:36:27;26.50;;;13.63;;
42704;SDS011;28342;42.594;23.414;2023-02-07T15:38:59;27.88;;;13.57;;
42704;SDS011;28342;42.594;23.414;2023-02-07T15:41:27;30.80;;;14.85;;
42704;SDS011;28342;42.594;23.414;2023-02-07T15:46:41;35.00;;;15.25;;
42704;SDS011;28342;42.594;23.414;2023-02-07T15:49:08;36.17;;;15.23;;
42704;SDS011;28342;42.594;23.414;2023-02-07T15:51:35;42.80;;;17.90;;
42704;SDS011;28342;42.594;23.414;2023-02-07T15:54:05;32.50;;;16.05;;
42704;SDS011;28342;42.594;23.414;2023-02-07T15:56:44;30.88;;;14.70;;
42704;SDS011;28342;42.594;23.414;2023-02-07T15:59:15;34.38;;;15.32;;
42704;SDS011;28342;42.594;23.414;2023-02-07T16:01:49;29.45;;;15.63;;
42704;SDS011;28342;42.594;23.414;2023-02-07T16:04:17;40.25;;;18.10;;
42704;SDS011;28342;42.594;23.414;2023-02-07T16:09:39;35.97;;;17.70;;
42704;SDS011;28342;42.594;23.414;2023-02-07T16:15:21;59.55;;;19.67;;
42704;SDS011;28342;42.594;23.414;2023-02-07T16:17:47;47.60;;;20.52;;
42704;SDS011;28342;42.594;23.414;2023-02-07T16:20:14;46.30;;;19.48;;
42704;SDS011;28342;42.594;23.414;2023-02-07T16:22:39;48.17;;;21.75;;
42704;SDS011;28342;42.594;23.414;2023-02-07T16:25:16;40.50;;;20.25;;
42704;SDS011;28342;42.594;23.414;2023-02-07T16:30:12;29.63;;;15.73;;
42704;SDS011;28342;42.594;23.414;2023-02-07T16:33:13;33.97;;;17.70;;
42704;SDS011;28342;42.594;23.414;2023-02-07T16:35:38;37.75;;;19.55;;
42704;SDS011;28342;42.594;23.414;2023-02-07T16:38:04;42.10;;;19.90;;
42704;SDS011;28342;42.594;23.414;2023-02-07T16:40:30;37.22;;;18.67;;
42704;SDS011;28342;42.594;23.414;2023-02-07T16:42:55;36.47;;;18.63;;
42704;SDS011;28342;42.594;23.414;2023-02-07T16:45:27;35.78;;;17.60;;
42704;SDS011;28342;42.594;23.414;2023-02-07T16:47:53;33.80;;;16.52;;
42704;SDS011;28342;42.594;23.414;2023-02-07T16:50:21;34.97;;;16.95;;
42704;SDS011;28342;42.594;23.414;2023-02-07T16:52:48;31.50;;;16.15;;
42704;SDS011;28342;42.594;23.414;2023-02-07T16:55:16;27.02;;;15.65;;